sensor_id;sensor_type;location;lat;lon;timestamp;P1;durP1;ratioP1;P2;durP2;ratioP2
31652;SDS011;18261;53.648;9.910;2023-08-20T00:01:05;25.60;;;8.27;;
31652;SDS011;18261;53.648;9.910;2023-08-20T00:03:33;24.83;;;8.40;;
31652;SDS011;18261;53.648;9.910;2023-08-20T00:05:59;30.40;;;8.77;;
31652;SDS011;18261;53.648;9.910;2023-08-20T00:08:25;29.00;;;8.15;;
31652;SDS011;18261;53.648;9.910;2023-08-20T00:10:51;36.92;;;8.93;;
31652;SDS011;18261;53.648;9.910;2023-08-20T00:13:17;30.98;;;8.38;;
31652;SDS011;18261;53.648;9.910;2023-08-20T00:15:43;22.05;;;8.15;;
31652;SDS011;18261;53.648;9.910;2023-08-20T00:18:09;24.00;;;8.73;;
31652;SDS011;18261;53.648;9.910;2023-08-20T00:20:35;27.15;;;8.32;;
31652;SDS011;18261;53.648;9.910;2023-08-20T00:23:01;26.33;;;9.88;;
31652;SDS011;18261;53.648;9.910;2023-08-20T00:25:27;24.02;;;9.82;;
31652;SDS011;18261;53.648;9.910;2023-08-20T00:27:54;27.08;;;10.07;;
31652;SDS011;18261;53.648;9.910;2023-08-20T00:30:20;29.05;;;11.18;;
31652;SDS011;18261;53.648;9.910;2023-08-20T00:32:46;31.90;;;10.57;;
31652;SDS011;18261;53.648;9.910;2023-08-20T00:35:12;31.08;;;10.90;;
31652;SDS011;18261;53.648;9.910;2023-08-20T00:37:38;27.25;;;11.38;;
31652;SDS011;18261;53.648;9.910;2023-08-20T00:40:04;33.88;;;12.07;;
31652;SDS011;18261;53.648;9.910;2023-08-20T00:42:30;29.30;;;9.93;;
31652;SDS011;18261;53.648;9.910;2023-08-20T00:44:56;34.22;;;11.52;;
31652;SDS011;18261;53.648;9.910;2023-08-20T00:47:22;30.08;;;10.40;;
31652;SDS011;18261;53.648;9.910;2023-08-20T00:49:48;28.70;;;9.75;;
31652;SDS011;18261;53.648;9.910;2023-08-20T00:52:15;28.75;;;10.52;;
31652;SDS011;18261;53.648;9.910;2023-08-20T00:54:44;24.83;;;10.77;;
31652;SDS011;18261;53.648;9.910;2023-08-20T00:57:11;27.92;;;10.88;;
31652;SDS011;18261;53.648;9.910;2023-08-20T00:59:37;29.23;;;11.10;;
31652;SDS011;18261;53.648;9.910;2023-08-20T01:02:03;28.98;;;11.30;;
31652;SDS011;18261;53.648;9.910;2023-08-20T01:04:31;33.60;;;10.95;;
31652;SDS011;18261;53.648;9.910;2023-08-20T01:09:39;23.85;;;10.88;;
31652;SDS011;18261;53.648;9.910;2023-08-20T01:12:08;38.10;;;13.13;;
31652;SDS011;18261;53.648;9.910;2023-08-20T01:14:35;30.90;;;11.07;;
31652;SDS011;18261;53.648;9.910;2023-08-20T01:17:01;25.27;;;10.18;;
31652;SDS011;18261;53.648;9.910;2023-08-20T01:19:27;21.50;;;9.38;;
31652;SDS011;18261;53.648;9.910;2023-08-20T01:24:55;28.95;;;10.30;;
31652;SDS011;18261;53.648;9.910;2023-08-20T01:30:10;34.85;;;12.02;;
31652;SDS011;18261;53.648;9.910;2023-08-20T01:32:36;27.77;;;10.90;;
31652;SDS011;18261;53.648;9.910;2023-08-20T01:35:02;25.17;;;10.57;;
31652;SDS011;18261;53.648;9.910;2023-08-20T01:37:28;34.72;;;10.82;;
31652;SDS011;18261;53.648;9.910;2023-08-20T01:39:54;28.25;;;10.73;;
31652;SDS011;18261;53.648;9.910;2023-08-20T01:42:20;27.70;;;10.75;;
31652;SDS011;18261;53.648;9.910;2023-08-20T01:44:46;31.65;;;11.50;;
31652;SDS011;18261;53.648;9.910;2023-08-20T01:47:12;23.80;;;10.60;;
31652;SDS011;18261;53.648;9.910;2023-08-20T01:49:38;24.25;;;9.90;;
31652;SDS011;18261;53.648;9.910;2023-08-20T01:52:04;31.83;;;10.55;;
31652;SDS011;18261;53.648;9.910;2023-08-20T01:54:30;25.45;;;10.00;;
31652;SDS011;18261;53.648;9.910;2023-08-20T01:56:56;31.98;;;10.90;;
31652;SDS011;18261;53.648;9.910;2023-08-20T01:59:22;30.23;;;10.55;;
31652;SDS011;18261;53.648;9.910;2023-08-20T02:01:48;25.35;;;9.85;;
31652;SDS011;18261;53.648;9.910;2023-08-20T02:04:14;27.33;;;10.52;;
31652;SDS011;18261;53.648;9.910;2023-08-20T02:06:40;26.55;;;9.52;;
31652;SDS011;18261;53.648;9.910;2023-08-20T02:09:06;23.50;;;10.25;;
31652;SDS011;18261;53.648;9.910;2023-08-20T02:11:32;29.98;;;9.95;;
31652;SDS011;18261;53.648;9.910;2023-08-20T02:14:01;23.85;;;9.77;;
31652;SDS011;18261;53.648;9.910;2023-08-20T02:16:27;24.48;;;10.18;;
31652;SDS011;18261;53.648;9.910;2023-08-20T02:18:53;33.47;;;11.60;;
31652;SDS011;18261;53.648;9.910;2023-08-20T02:21:19;25.55;;;10.55;;
31652;SDS011;18261;53.648;9.910;2023-08-20T02:23:45;24.75;;;11.13;;
31652;SDS011;18261;53.648;9.910;2023-08-20T02:26:11;30.95;;;10.27;;
31652;SDS011;18261;53.648;9.910;2023-08-20T02:28:37;31.38;;;11.40;;
31652;SDS011;18261;53.648;9.910;2023-08-20T02:31:04;27.02;;;10.90;;
31652;SDS011;18261;53.648;9.910;2023-08-20T02:33:30;25.52;;;10.07;;
31652;SDS011;18261;53.648;9.910;2023-08-20T02:36:00;23.13;;;10.35;;
31652;SDS011;18261;53.648;9.910;2023-08-20T02:38:27;26.30;;;10.25;;
31652;SDS011;18261;53.648;9.910;2023-08-20T02:40:53;23.38;;;10.82;;
31652;SDS011;18261;53.648;9.910;2023-08-20T02:43:19;24.65;;;10.13;;
31652;SDS011;18261;53.648;9.910;2023-08-20T02:45:45;29.67;;;11.45;;
31652;SDS011;18261;53.648;9.910;2023-08-20T02:48:11;39.50;;;12.43;;
31652;SDS011;18261;53.648;9.910;2023-08-20T02:50:37;29.42;;;11.13;;
31652;SDS011;18261;53.648;9.910;2023-08-20T02:53:03;30.60;;;12.02;;
31652;SDS011;18261;53.648;9.910;2023-08-20T02:55:30;27.52;;;10.23;;
31652;SDS011;18261;53.648;9.910;2023-08-20T02:57:56;30.10;;;11.48;;
31652;SDS011;18261;53.648;9.910;2023-08-20T03:00:22;23.50;;;10.70;;
31652;SDS011;18261;53.648;9.910;2023-08-20T03:02:48;29.35;;;10.88;;
31652;SDS011;18261;53.648;9.910;2023-08-20T03:05:14;23.55;;;10.23;;
31652;SDS011;18261;53.648;9.910;2023-08-20T03:07:40;26.58;;;10.73;;
31652;SDS011;18261;53.648;9.910;2023-08-20T03:10:06;24.38;;;9.82;;
31652;SDS011;18261;53.648;9.910;2023-08-20T03:12:32;34.70;;;10.80;;
31652;SDS011;18261;53.648;9.910;2023-08-20T03:15:01;25.38;;;9.93;;
31652;SDS011;18261;53.648;9.910;2023-08-20T03:17:28;22.85;;;9.80;;
31652;SDS011;18261;53.648;9.910;2023-08-20T03:19:55;24.52;;;11.30;;
31652;SDS011;18261;53.648;9.910;2023-08-20T03:22:21;20.55;;;9.98;;
31652;SDS011;18261;53.648;9.910;2023-08-20T03:24:47;25.48;;;11.50;;
31652;SDS011;18261;53.648;9.910;2023-08-20T03:27:14;24.67;;;11.25;;
31652;SDS011;18261;53.648;9.910;2023-08-20T03:29:39;28.52;;;11.20;;
31652;SDS011;18261;53.648;9.910;2023-08-20T03:32:05;30.55;;;11.48;;
31652;SDS011;18261;53.648;9.910;2023-08-20T03:34:31;29.42;;;10.95;;
31652;SDS011;18261;53.648;9.910;2023-08-20T03:36:57;34.63;;;13.45;;
31652;SDS011;18261;53.648;9.910;2023-08-20T03:39:23;27.23;;;12.65;;
31652;SDS011;18261;53.648;9.910;2023-08-20T03:41:50;25.55;;;10.65;;
31652;SDS011;18261;53.648;9.910;2023-08-20T03:44:16;22.80;;;10.27;;
31652;SDS011;18261;53.648;9.910;2023-08-20T03:46:42;25.23;;;9.80;;
31652;SDS011;18261;53.648;9.910;2023-08-20T03:49:08;20.58;;;9.40;;
31652;SDS011;18261;53.648;9.910;2023-08-20T03:51:34;24.73;;;9.68;;
31652;SDS011;18261;53.648;9.910;2023-08-20T03:54:00;24.05;;;10.30;;
31652;SDS011;18261;53.648;9.910;2023-08-20T03:56:26;23.27;;;9.77;;
31652;SDS011;18261;53.648;9.910;2023-08-20T03:58:52;21.65;;;10.00;;
31652;SDS011;18261;53.648;9.910;2023-08-20T04:01:18;30.55;;;12.13;;
31652;SDS011;18261;53.648;9.910;2023-08-20T04:03:47;22.23;;;10.80;;
31652;SDS011;18261;53.648;9.910;2023-08-20T04:06:14;20.55;;;11.77;;
31652;SDS011;18261;53.648;9.910;2023-08-20T04:08:40;21.80;;;10.32;;
31652;SDS011;18261;53.648;9.910;2023-08-20T04:11:06;20.73;;;10.25;;
31652;SDS011;18261;53.648;9.910;2023-08-20T04:13:32;26.05;;;10.85;;
31652;SDS011;18261;53.648;9.910;2023-08-20T04:15:58;24.85;;;11.10;;
31652;SDS011;18261;53.648;9.910;2023-08-20T04:18:24;24.30;;;10.38;;
31652;SDS011;18261;53.648;9.910;2023-08-20T04:20:50;17.67;;;10.77;;
31652;SDS011;18261;53.648;9.910;2023-08-20T04:23:17;24.25;;;11.88;;
31652;SDS011;18261;53.648;9.910;2023-08-20T04:25:43;17.27;;;10.65;;
31652;SDS011;18261;53.648;9.910;2023-08-20T04:28:10;25.17;;;11.68;;
31652;SDS011;18261;53.648;9.910;2023-08-20T04:30:36;25.33;;;13.15;;
31652;SDS011;18261;53.648;9.910;2023-08-20T04:33:02;22.60;;;11.48;;
31652;SDS011;18261;53.648;9.910;2023-08-20T04:35:28;21.77;;;12.23;;
31652;SDS011;18261;53.648;9.910;2023-08-20T04:37:54;23.63;;;12.63;;
31652;SDS011;18261;53.648;9.910;2023-08-20T04:40:20;22.80;;;13.57;;
31652;SDS011;18261;53.648;9.910;2023-08-20T04:42:46;22.52;;;14.30;;
31652;SDS011;18261;53.648;9.910;2023-08-20T04:45:12;139.40;;;15.07;;
31652;SDS011;18261;53.648;9.910;2023-08-20T04:47:38;20.35;;;12.70;;
31652;SDS011;18261;53.648;9.910;2023-08-20T04:50:04;23.40;;;11.68;;
31652;SDS011;18261;53.648;9.910;2023-08-20T04:52:33;30.75;;;13.18;;
31652;SDS011;18261;53.648;9.910;2023-08-20T04:55:00;13.18;;;10.93;;
31652;SDS011;18261;53.648;9.910;2023-08-20T04:57:26;14.85;;;10.80;;
31652;SDS011;18261;53.648;9.910;2023-08-20T04:59:52;16.73;;;11.32;;
31652;SDS011;18261;53.648;9.910;2023-08-20T05:02:18;19.13;;;12.32;;
31652;SDS011;18261;53.648;9.910;2023-08-20T05:04:44;17.90;;;11.10;;
31652;SDS011;18261;53.648;9.910;2023-08-20T05:07:10;14.40;;;11.73;;
31652;SDS011;18261;53.648;9.910;2023-08-20T05:09:36;13.95;;;10.70;;
31652;SDS011;18261;53.648;9.910;2023-08-20T05:12:02;19.00;;;11.00;;
31652;SDS011;18261;53.648;9.910;2023-08-20T05:14:28;12.98;;;10.40;;
31652;SDS011;18261;53.648;9.910;2023-08-20T05:16:55;18.27;;;11.85;;
31652;SDS011;18261;53.648;9.910;2023-08-20T05:19:21;15.27;;;11.57;;
31652;SDS011;18261;53.648;9.910;2023-08-20T05:21:47;15.35;;;12.13;;
31652;SDS011;18261;53.648;9.910;2023-08-20T05:24:13;19.90;;;12.52;;
31652;SDS011;18261;53.648;9.910;2023-08-20T05:26:39;17.05;;;12.10;;
31652;SDS011;18261;53.648;9.910;2023-08-20T05:29:06;19.90;;;11.98;;
31652;SDS011;18261;53.648;9.910;2023-08-20T05:31:33;42.53;;;13.82;;
31652;SDS011;18261;53.648;9.910;2023-08-20T05:33:59;24.25;;;14.90;;
31652;SDS011;18261;53.648;9.910;2023-08-20T05:36:25;22.77;;;13.80;;
31652;SDS011;18261;53.648;9.910;2023-08-20T05:38:51;30.45;;;13.13;;
31652;SDS011;18261;53.648;9.910;2023-08-20T05:41:17;18.00;;;12.95;;
31652;SDS011;18261;53.648;9.910;2023-08-20T05:43:43;22.55;;;12.70;;
31652;SDS011;18261;53.648;9.910;2023-08-20T05:46:09;13.93;;;10.00;;
31652;SDS011;18261;53.648;9.910;2023-08-20T05:48:35;21.75;;;10.20;;
31652;SDS011;18261;53.648;9.910;2023-08-20T05:51:01;14.77;;;10.73;;
31652;SDS011;18261;53.648;9.910;2023-08-20T05:53:27;13.70;;;10.32;;
31652;SDS011;18261;53.648;9.910;2023-08-20T05:55:53;14.57;;;9.32;;
31652;SDS011;18261;53.648;9.910;2023-08-20T05:58:19;23.50;;;10.13;;
31652;SDS011;18261;53.648;9.910;2023-08-20T06:00:45;13.40;;;9.23;;
31652;SDS011;18261;53.648;9.910;2023-08-20T06:03:11;10.90;;;7.72;;
31652;SDS011;18261;53.648;9.910;2023-08-20T06:05:37;21.38;;;8.50;;
31652;SDS011;18261;53.648;9.910;2023-08-20T06:08:03;14.23;;;7.43;;
31652;SDS011;18261;53.648;9.910;2023-08-20T06:10:30;11.10;;;7.35;;
31652;SDS011;18261;53.648;9.910;2023-08-20T06:12:56;16.30;;;9.70;;
31652;SDS011;18261;53.648;9.910;2023-08-20T06:15:22;12.50;;;8.00;;
31652;SDS011;18261;53.648;9.910;2023-08-20T06:17:48;15.95;;;9.00;;
31652;SDS011;18261;53.648;9.910;2023-08-20T06:20:14;14.13;;;7.28;;
31652;SDS011;18261;53.648;9.910;2023-08-20T06:22:40;16.27;;;9.00;;
31652;SDS011;18261;53.648;9.910;2023-08-20T06:25:06;12.82;;;6.90;;
31652;SDS011;18261;53.648;9.910;2023-08-20T06:27:32;17.52;;;7.30;;
31652;SDS011;18261;53.648;9.910;2023-08-20T06:29:58;16.98;;;7.57;;
31652;SDS011;18261;53.648;9.910;2023-08-20T06:32:25;16.90;;;9.32;;
31652;SDS011;18261;53.648;9.910;2023-08-20T06:34:51;21.38;;;10.80;;
31652;SDS011;18261;53.648;9.910;2023-08-20T06:37:17;19.27;;;8.88;;
31652;SDS011;18261;53.648;9.910;2023-08-20T06:39:43;15.10;;;7.97;;
31652;SDS011;18261;53.648;9.910;2023-08-20T06:42:09;20.48;;;9.07;;
31652;SDS011;18261;53.648;9.910;2023-08-20T06:44:35;20.90;;;11.15;;
31652;SDS011;18261;53.648;9.910;2023-08-20T06:47:01;24.30;;;10.90;;
31652;SDS011;18261;53.648;9.910;2023-08-20T06:49:27;21.55;;;9.10;;
31652;SDS011;18261;53.648;9.910;2023-08-20T06:51:53;22.35;;;9.52;;
31652;SDS011;18261;53.648;9.910;2023-08-20T06:54:19;16.60;;;8.60;;
31652;SDS011;18261;53.648;9.910;2023-08-20T06:56:45;22.30;;;9.18;;
31652;SDS011;18261;53.648;9.910;2023-08-20T06:59:11;20.48;;;8.50;;
31652;SDS011;18261;53.648;9.910;2023-08-20T07:01:37;19.35;;;8.65;;
31652;SDS011;18261;53.648;9.910;2023-08-20T07:04:03;19.65;;;8.85;;
31652;SDS011;18261;53.648;9.910;2023-08-20T07:06:29;23.75;;;9.63;;
31652;SDS011;18261;53.648;9.910;2023-08-20T07:08:55;17.58;;;8.30;;
31652;SDS011;18261;53.648;9.910;2023-08-20T07:11:21;21.02;;;9.77;;
31652;SDS011;18261;53.648;9.910;2023-08-20T07:13:47;23.65;;;10.13;;
31652;SDS011;18261;53.648;9.910;2023-08-20T07:16:13;21.45;;;9.20;;
31652;SDS011;18261;53.648;9.910;2023-08-20T07:18:39;26.20;;;11.88;;
31652;SDS011;18261;53.648;9.910;2023-08-20T07:21:05;23.15;;;11.25;;
31652;SDS011;18261;53.648;9.910;2023-08-20T07:23:33;20.98;;;11.07;;
31652;SDS011;18261;53.648;9.910;2023-08-20T07:26:06;19.33;;;9.77;;
31652;SDS011;18261;53.648;9.910;2023-08-20T07:28:32;17.73;;;10.07;;
31652;SDS011;18261;53.648;9.910;2023-08-20T07:33:46;16.17;;;9.45;;
31652;SDS011;18261;53.648;9.910;2023-08-20T07:36:12;16.83;;;9.07;;
31652;SDS011;18261;53.648;9.910;2023-08-20T07:38:39;15.43;;;8.88;;
31652;SDS011;18261;53.648;9.910;2023-08-20T07:41:07;16.98;;;8.68;;
31652;SDS011;18261;53.648;9.910;2023-08-20T07:43:33;20.40;;;8.10;;
31652;SDS011;18261;53.648;9.910;2023-08-20T07:46:00;13.63;;;6.88;;
31652;SDS011;18261;53.648;9.910;2023-08-20T07:48:26;16.65;;;8.15;;
31652;SDS011;18261;53.648;9.910;2023-08-20T07:50:52;21.50;;;9.15;;
31652;SDS011;18261;53.648;9.910;2023-08-20T07:53:17;20.23;;;12.18;;
31652;SDS011;18261;53.648;9.910;2023-08-20T07:55:44;19.80;;;11.98;;
31652;SDS011;18261;53.648;9.910;2023-08-20T07:58:10;23.92;;;12.82;;
31652;SDS011;18261;53.648;9.910;2023-08-20T08:00:36;28.65;;;15.50;;
31652;SDS011;18261;53.648;9.910;2023-08-20T08:03:02;32.25;;;19.20;;
31652;SDS011;18261;53.648;9.910;2023-08-20T08:05:28;31.73;;;16.17;;
31652;SDS011;18261;53.648;9.910;2023-08-20T08:07:54;29.83;;;16.77;;
31652;SDS011;18261;53.648;9.910;2023-08-20T08:10:20;27.55;;;13.90;;
31652;SDS011;18261;53.648;9.910;2023-08-20T08:12:46;24.92;;;15.05;;
31652;SDS011;18261;53.648;9.910;2023-08-20T08:15:13;23.40;;;13.07;;
31652;SDS011;18261;53.648;9.910;2023-08-20T08:17:39;32.47;;;13.10;;
31652;SDS011;18261;53.648;9.910;2023-08-20T08:20:05;20.52;;;11.10;;
31652;SDS011;18261;53.648;9.910;2023-08-20T08:22:31;28.83;;;13.00;;
31652;SDS011;18261;53.648;9.910;2023-08-20T08:24:57;19.02;;;12.00;;
31652;SDS011;18261;53.648;9.910;2023-08-20T08:27:23;22.75;;;11.32;;
31652;SDS011;18261;53.648;9.910;2023-08-20T08:29:50;19.83;;;9.40;;
31652;SDS011;18261;53.648;9.910;2023-08-20T08:32:16;22.02;;;10.18;;
31652;SDS011;18261;53.648;9.910;2023-08-20T08:34:42;22.20;;;9.77;;
31652;SDS011;18261;53.648;9.910;2023-08-20T08:37:08;17.35;;;8.45;;
31652;SDS011;18261;53.648;9.910;2023-08-20T08:39:34;17.92;;;8.00;;
31652;SDS011;18261;53.648;9.910;2023-08-20T08:42:01;18.52;;;7.72;;
31652;SDS011;18261;53.648;9.910;2023-08-20T08:44:31;21.05;;;6.93;;
31652;SDS011;18261;53.648;9.910;2023-08-20T08:46:58;15.93;;;6.07;;
31652;SDS011;18261;53.648;9.910;2023-08-20T08:49:24;12.40;;;5.32;;
31652;SDS011;18261;53.648;9.910;2023-08-20T08:51:51;13.18;;;5.57;;
31652;SDS011;18261;53.648;9.910;2023-08-20T08:54:19;17.45;;;5.90;;
31652;SDS011;18261;53.648;9.910;2023-08-20T08:56:45;16.48;;;5.50;;
31652;SDS011;18261;53.648;9.910;2023-08-20T08:59:11;16.42;;;5.18;;
31652;SDS011;18261;53.648;9.910;2023-08-20T09:01:41;13.20;;;4.10;;
31652;SDS011;18261;53.648;9.910;2023-08-20T09:04:07;16.63;;;4.45;;
31652;SDS011;18261;53.648;9.910;2023-08-20T09:06:46;15.65;;;3.70;;
31652;SDS011;18261;53.648;9.910;2023-08-20T09:09:12;9.98;;;3.60;;
31652;SDS011;18261;53.648;9.910;2023-08-20T09:11:38;13.27;;;4.30;;
31652;SDS011;18261;53.648;9.910;2023-08-20T09:14:04;14.02;;;3.78;;
31652;SDS011;18261;53.648;9.910;2023-08-20T09:16:31;16.77;;;3.63;;
31652;SDS011;18261;53.648;9.910;2023-08-20T09:19:00;14.82;;;3.50;;
31652;SDS011;18261;53.648;9.910;2023-08-20T09:21:27;13.80;;;4.03;;
31652;SDS011;18261;53.648;9.910;2023-08-20T09:23:54;15.95;;;3.67;;
31652;SDS011;18261;53.648;9.910;2023-08-20T09:26:20;12.90;;;3.25;;
31652;SDS011;18261;53.648;9.910;2023-08-20T09:28:46;16.27;;;3.00;;
31652;SDS011;18261;53.648;9.910;2023-08-20T09:31:13;12.85;;;3.58;;
31652;SDS011;18261;53.648;9.910;2023-08-20T09:33:48;13.77;;;3.20;;
31652;SDS011;18261;53.648;9.910;2023-08-20T09:36:14;9.55;;;2.70;;
31652;SDS011;18261;53.648;9.910;2023-08-20T09:38:40;12.35;;;2.97;;
31652;SDS011;18261;53.648;9.910;2023-08-20T09:41:06;18.55;;;3.78;;
31652;SDS011;18261;53.648;9.910;2023-08-20T09:43:35;15.82;;;3.15;;
31652;SDS011;18261;53.648;9.910;2023-08-20T09:46:03;12.82;;;3.15;;
31652;SDS011;18261;53.648;9.910;2023-08-20T09:48:33;15.32;;;3.35;;
31652;SDS011;18261;53.648;9.910;2023-08-20T09:51:00;10.07;;;2.80;;
31652;SDS011;18261;53.648;9.910;2023-08-20T09:53:34;16.50;;;3.72;;
31652;SDS011;18261;53.648;9.910;2023-08-20T09:56:03;14.05;;;2.83;;
31652;SDS011;18261;53.648;9.910;2023-08-20T09:58:30;13.98;;;3.42;;
31652;SDS011;18261;53.648;9.910;2023-08-20T10:00:57;14.45;;;3.35;;
31652;SDS011;18261;53.648;9.910;2023-08-20T10:03:23;11.55;;;3.10;;
31652;SDS011;18261;53.648;9.910;2023-08-20T10:05:50;13.95;;;3.28;;
31652;SDS011;18261;53.648;9.910;2023-08-20T10:08:16;10.68;;;3.08;;
31652;SDS011;18261;53.648;9.910;2023-08-20T10:10:43;11.95;;;3.25;;
31652;SDS011;18261;53.648;9.910;2023-08-20T10:13:09;14.93;;;3.70;;
31652;SDS011;18261;53.648;9.910;2023-08-20T10:15:35;13.10;;;3.22;;
31652;SDS011;18261;53.648;9.910;2023-08-20T10:18:02;12.80;;;3.38;;
31652;SDS011;18261;53.648;9.910;2023-08-20T10:20:29;15.80;;;3.67;;
31652;SDS011;18261;53.648;9.910;2023-08-20T10:22:59;13.02;;;3.38;;
31652;SDS011;18261;53.648;9.910;2023-08-20T10:25:26;13.25;;;3.08;;
31652;SDS011;18261;53.648;9.910;2023-08-20T10:27:52;14.68;;;3.88;;
31652;SDS011;18261;53.648;9.910;2023-08-20T10:30:25;14.10;;;3.08;;
31652;SDS011;18261;53.648;9.910;2023-08-20T10:32:52;15.57;;;3.50;;
31652;SDS011;18261;53.648;9.910;2023-08-20T10:35:22;15.95;;;3.72;;
31652;SDS011;18261;53.648;9.910;2023-08-20T10:38:07;14.93;;;4.28;;
31652;SDS011;18261;53.648;9.910;2023-08-20T10:46:01;15.00;;;3.85;;
31652;SDS011;18261;53.648;9.910;2023-08-20T10:48:28;9.30;;;2.70;;
31652;SDS011;18261;53.648;9.910;2023-08-20T10:50:55;14.65;;;2.65;;
31652;SDS011;18261;53.648;9.910;2023-08-20T10:53:22;15.68;;;2.45;;
31652;SDS011;18261;53.648;9.910;2023-08-20T10:55:48;11.98;;;3.08;;
31652;SDS011;18261;53.648;9.910;2023-08-20T10:58:14;11.68;;;3.08;;
31652;SDS011;18261;53.648;9.910;2023-08-20T11:00:41;10.98;;;2.80;;
31652;SDS011;18261;53.648;9.910;2023-08-20T11:03:08;13.48;;;3.45;;
31652;SDS011;18261;53.648;9.910;2023-08-20T11:05:34;19.65;;;2.70;;
31652;SDS011;18261;53.648;9.910;2023-08-20T11:08:00;12.13;;;2.78;;
31652;SDS011;18261;53.648;9.910;2023-08-20T11:10:28;10.98;;;2.50;;
31652;SDS011;18261;53.648;9.910;2023-08-20T11:12:54;14.65;;;3.35;;
31652;SDS011;18261;53.648;9.910;2023-08-20T11:15:20;11.15;;;3.15;;
31652;SDS011;18261;53.648;9.910;2023-08-20T11:17:47;13.35;;;2.75;;
31652;SDS011;18261;53.648;9.910;2023-08-20T11:20:16;11.40;;;2.40;;
31652;SDS011;18261;53.648;9.910;2023-08-20T11:22:42;14.45;;;2.58;;
31652;SDS011;18261;53.648;9.910;2023-08-20T11:25:12;10.15;;;2.50;;
31652;SDS011;18261;53.648;9.910;2023-08-20T11:27:41;13.50;;;3.03;;
31652;SDS011;18261;53.648;9.910;2023-08-20T11:30:08;14.23;;;2.83;;
31652;SDS011;18261;53.648;9.910;2023-08-20T11:32:37;11.50;;;3.00;;
31652;SDS011;18261;53.648;9.910;2023-08-20T11:35:03;11.80;;;2.80;;
31652;SDS011;18261;53.648;9.910;2023-08-20T11:37:30;11.75;;;2.58;;
31652;SDS011;18261;53.648;9.910;2023-08-20T11:39:56;12.02;;;3.00;;
31652;SDS011;18261;53.648;9.910;2023-08-20T11:42:22;7.88;;;2.20;;
31652;SDS011;18261;53.648;9.910;2023-08-20T11:44:48;10.07;;;2.35;;
31652;SDS011;18261;53.648;9.910;2023-08-20T11:47:17;9.60;;;2.40;;
31652;SDS011;18261;53.648;9.910;2023-08-20T11:49:44;15.30;;;2.60;;
31652;SDS011;18261;53.648;9.910;2023-08-20T11:52:10;10.65;;;2.63;;
31652;SDS011;18261;53.648;9.910;2023-08-20T11:54:38;7.82;;;2.60;;
31652;SDS011;18261;53.648;9.910;2023-08-20T11:57:05;10.82;;;2.70;;
31652;SDS011;18261;53.648;9.910;2023-08-20T11:59:31;9.45;;;2.22;;
31652;SDS011;18261;53.648;9.910;2023-08-20T12:01:58;10.60;;;3.10;;
31652;SDS011;18261;53.648;9.910;2023-08-20T12:04:30;14.63;;;2.42;;
31652;SDS011;18261;53.648;9.910;2023-08-20T12:09:30;9.77;;;2.57;;
31652;SDS011;18261;53.648;9.910;2023-08-20T12:11:56;11.75;;;2.30;;
31652;SDS011;18261;53.648;9.910;2023-08-20T12:14:23;11.77;;;2.58;;
31652;SDS011;18261;53.648;9.910;2023-08-20T12:16:49;10.45;;;2.80;;
31652;SDS011;18261;53.648;9.910;2023-08-20T12:19:18;12.85;;;2.33;;
31652;SDS011;18261;53.648;9.910;2023-08-20T12:21:44;7.85;;;2.33;;
31652;SDS011;18261;53.648;9.910;2023-08-20T12:24:10;12.82;;;2.42;;
31652;SDS011;18261;53.648;9.910;2023-08-20T12:26:36;8.38;;;2.35;;
31652;SDS011;18261;53.648;9.910;2023-08-20T12:29:02;10.30;;;2.47;;
31652;SDS011;18261;53.648;9.910;2023-08-20T12:31:28;10.20;;;2.55;;
31652;SDS011;18261;53.648;9.910;2023-08-20T12:33:54;16.42;;;3.42;;
31652;SDS011;18261;53.648;9.910;2023-08-20T12:36:20;10.90;;;2.38;;
31652;SDS011;18261;53.648;9.910;2023-08-20T12:38:46;11.45;;;2.53;;
31652;SDS011;18261;53.648;9.910;2023-08-20T12:41:12;11.02;;;4.25;;
31652;SDS011;18261;53.648;9.910;2023-08-20T12:43:39;8.23;;;2.50;;
31652;SDS011;18261;53.648;9.910;2023-08-20T12:46:05;6.40;;;2.08;;
31652;SDS011;18261;53.648;9.910;2023-08-20T12:48:31;9.02;;;2.15;;
31652;SDS011;18261;53.648;9.910;2023-08-20T12:50:57;7.97;;;2.30;;
31652;SDS011;18261;53.648;9.910;2023-08-20T12:53:23;12.40;;;3.20;;
31652;SDS011;18261;53.648;9.910;2023-08-20T12:55:50;15.10;;;2.83;;
31652;SDS011;18261;53.648;9.910;2023-08-20T12:58:16;8.07;;;2.63;;
31652;SDS011;18261;53.648;9.910;2023-08-20T13:00:42;11.48;;;2.42;;
31652;SDS011;18261;53.648;9.910;2023-08-20T13:03:08;13.98;;;3.10;;
31652;SDS011;18261;53.648;9.910;2023-08-20T13:05:34;7.45;;;2.60;;
31652;SDS011;18261;53.648;9.910;2023-08-20T13:08:00;12.10;;;2.83;;
31652;SDS011;18261;53.648;9.910;2023-08-20T13:10:27;5.88;;;1.80;;
31652;SDS011;18261;53.648;9.910;2023-08-20T13:12:54;9.90;;;3.10;;
31652;SDS011;18261;53.648;9.910;2023-08-20T13:15:20;8.68;;;2.42;;
31652;SDS011;18261;53.648;9.910;2023-08-20T13:17:48;8.38;;;2.60;;
31652;SDS011;18261;53.648;9.910;2023-08-20T13:20:14;9.45;;;2.33;;
31652;SDS011;18261;53.648;9.910;2023-08-20T13:22:40;8.60;;;2.30;;
31652;SDS011;18261;53.648;9.910;2023-08-20T13:25:08;8.75;;;2.47;;
31652;SDS011;18261;53.648;9.910;2023-08-20T13:27:34;8.07;;;2.28;;
31652;SDS011;18261;53.648;9.910;2023-08-20T13:30:00;11.88;;;2.38;;
31652;SDS011;18261;53.648;9.910;2023-08-20T13:32:26;10.48;;;2.35;;
31652;SDS011;18261;53.648;9.910;2023-08-20T13:34:52;7.85;;;2.13;;
31652;SDS011;18261;53.648;9.910;2023-08-20T13:37:18;6.93;;;1.95;;
31652;SDS011;18261;53.648;9.910;2023-08-20T13:39:44;11.25;;;2.70;;
31652;SDS011;18261;53.648;9.910;2023-08-20T13:42:10;5.40;;;2.00;;
31652;SDS011;18261;53.648;9.910;2023-08-20T13:44:36;7.88;;;1.80;;
31652;SDS011;18261;53.648;9.910;2023-08-20T13:47:02;6.90;;;2.00;;
31652;SDS011;18261;53.648;9.910;2023-08-20T13:49:28;9.55;;;2.53;;
31652;SDS011;18261;53.648;9.910;2023-08-20T13:51:54;8.02;;;2.25;;
31652;SDS011;18261;53.648;9.910;2023-08-20T13:54:20;11.30;;;2.75;;
31652;SDS011;18261;53.648;9.910;2023-08-20T13:56:46;10.63;;;3.20;;
31652;SDS011;18261;53.648;9.910;2023-08-20T13:59:12;6.05;;;2.42;;
31652;SDS011;18261;53.648;9.910;2023-08-20T14:01:38;6.47;;;2.25;;
31652;SDS011;18261;53.648;9.910;2023-08-20T14:04:04;8.23;;;2.10;;
31652;SDS011;18261;53.648;9.910;2023-08-20T14:06:30;7.25;;;1.88;;
31652;SDS011;18261;53.648;9.910;2023-08-20T14:08:56;8.15;;;2.00;;
31652;SDS011;18261;53.648;9.910;2023-08-20T14:11:22;5.80;;;1.50;;
31652;SDS011;18261;53.648;9.910;2023-08-20T14:13:48;8.07;;;1.60;;
31652;SDS011;18261;53.648;9.910;2023-08-20T14:16:14;6.32;;;1.83;;
31652;SDS011;18261;53.648;9.910;2023-08-20T14:18:40;4.53;;;2.13;;
31652;SDS011;18261;53.648;9.910;2023-08-20T14:21:06;6.20;;;2.30;;
31652;SDS011;18261;53.648;9.910;2023-08-20T14:23:32;4.65;;;1.70;;
31652;SDS011;18261;53.648;9.910;2023-08-20T14:26:00;7.30;;;1.70;;
31652;SDS011;18261;53.648;9.910;2023-08-20T14:28:26;5.85;;;1.40;;
31652;SDS011;18261;53.648;9.910;2023-08-20T14:30:52;4.72;;;1.48;;
31652;SDS011;18261;53.648;9.910;2023-08-20T14:33:19;12.90;;;2.40;;
31652;SDS011;18261;53.648;9.910;2023-08-20T14:35:46;8.13;;;2.80;;
31652;SDS011;18261;53.648;9.910;2023-08-20T14:38:12;9.13;;;2.28;;
31652;SDS011;18261;53.648;9.910;2023-08-20T14:40:39;6.68;;;1.67;;
31652;SDS011;18261;53.648;9.910;2023-08-20T14:43:06;6.50;;;1.60;;
31652;SDS011;18261;53.648;9.910;2023-08-20T14:45:31;7.10;;;1.88;;